Terminal Aerodrome Forecast
Issued by NWS Lubbock, TX

Home | Current Version | Previous Version | Text Only | Print | Product List | Glossary On
Versions: 1 2 3 4 5 6 7 8 9 10 11 12 13 14 15 16 17 18 19 20 21 22 23 24 25
000
FTUS44 KLUB 011206 AAA
TAFLBB
TAF AMD
KLBB 011206Z 0112/0212 32009KT 6SM BR SCT010
     FM011400 36018G23KT P6SM SCT030
     FM012100 01009KT P6SM SKC
     FM020600 11007KT P6SM SCT040=

USA.gov is the U.S. government's official web portal to all federal, state and local government web resources and services.